クアラルンプール の空港の天気 - METARとTAF

クアラルンプール国際空港 ( WMKK / KUL ) - マレーシア スランゴール州セパン
飛行場実況気象(Metar)
観測時間05/27 06:30 MYT (05/26 22:30 UTC)
風向・風速不定 1m/s
視程8000m
天気現象
少しの雲 雲底高度 300m
気温26℃
湿度94%
気圧1007hPa
METARWMKK 262230Z VRB02KT 8000 FEW010 26/25 Q1007 NOSIG
過去の天気等 Google飛行場航空写真 Wunderground天気予報

過去48時間のMETAR

飛行場予報(TAF)
発表時間: 5/27 01:00 MYT (5/26 17:00 UTC)
予報対象時間: 27日2時 MYT ~ 28日8時 MYT
風向・風速北北東 3m/s
視程10km以上
少しの雲 雲底高度 910m
27日14時 MYT ~ 27日17時 MYT に 確率 30% で一時的に
視程5000m
天気現象しゅう雨
少しの雲 雲底高度 550m
TAF WMKK 261700Z 2618/2800 03006KT 9999 FEW030
PROB30 TEMPO 2706/2709 5000 SHRA FEW018